createdAt,value
2023-10-19T00:00:01.567Z,96569.41
2023-10-19T00:02:28.193Z,96558.53
2023-10-19T00:04:54.944Z,96566.78
2023-10-19T00:07:21.624Z,96565.63
2023-10-19T00:09:48.281Z,96563.44
2023-10-19T00:12:14.972Z,96555.31
2023-10-19T00:14:41.591Z,96551.69
2023-10-19T00:17:08.243Z,96546.38
2023-10-19T00:19:34.959Z,96550.81
2023-10-19T00:22:01.596Z,96536.31
2023-10-19T00:24:28.215Z,96539.72
2023-10-19T00:26:54.888Z,96542.22
2023-10-19T00:29:21.534Z,96531.69
2023-10-19T00:31:48.214Z,96531.88
2023-10-19T00:34:14.970Z,96526.44
2023-10-19T00:36:41.592Z,96522.56
2023-10-19T00:39:08.211Z,96518.03
2023-10-19T00:41:34.868Z,96502.91
2023-10-19T00:44:01.489Z,96504.31
2023-10-19T00:46:28.174Z,96501.06
2023-10-19T00:48:54.886Z,96506.31
2023-10-19T00:51:21.501Z,96492.91
2023-10-19T00:53:48.112Z,96487.72
2023-10-19T00:56:14.784Z,96477.88
2023-10-19T00:58:41.422Z,96464.31
2023-10-19T01:01:08.131Z,96481.53
2023-10-19T01:03:34.891Z,96471.81
2023-10-19T01:06:01.615Z,96464.13
2023-10-19T01:08:28.231Z,96463.09
2023-10-19T01:10:54.911Z,96454.38
2023-10-19T01:13:21.600Z,96454.22
2023-10-19T01:15:48.262Z,96456.63
2023-10-19T01:18:14.949Z,96451.75
2023-10-19T01:20:41.595Z,96449.53
2023-10-19T01:23:08.188Z,96445.75
2023-10-19T01:25:34.895Z,96451.97
2023-10-19T01:28:01.526Z,96454.00
2023-10-19T01:30:28.163Z,96440.88
2023-10-19T01:32:54.901Z,96436.81
2023-10-19T01:35:21.506Z,96434.25
2023-10-19T01:37:48.171Z,96426.38
2023-10-19T01:40:14.937Z,96430.47
2023-10-19T01:42:41.589Z,96420.53
2023-10-19T01:45:08.176Z,96412.25
2023-10-19T01:47:34.988Z,96418.06
2023-10-19T01:50:01.649Z,96408.06
2023-10-19T01:52:28.293Z,96412.91
2023-10-19T01:54:54.977Z,96408.22
2023-10-19T01:57:21.622Z,96404.38
2023-10-19T01:59:48.310Z,96402.00
2023-10-19T02:02:15.060Z,96403.00
2023-10-19T02:04:41.802Z,96392.94
2023-10-19T02:07:08.430Z,96385.75
2023-10-19T02:09:35.081Z,96383.72
2023-10-19T02:12:01.685Z,96382.47
2023-10-19T02:14:28.300Z,96388.13
2023-10-19T02:16:55.084Z,96386.56
2023-10-19T02:19:21.856Z,96381.69
2023-10-19T02:21:48.495Z,96373.19
2023-10-19T02:24:15.176Z,96367.91
2023-10-19T02:26:41.789Z,96358.41
2023-10-19T02:29:08.413Z,96362.50
2023-10-19T02:31:35.155Z,96359.63
2023-10-19T02:34:01.778Z,96351.78
2023-10-19T02:36:28.394Z,96355.41
2023-10-19T02:38:55.078Z,96349.19
2023-10-19T02:41:21.693Z,96344.72
2023-10-19T02:43:48.331Z,96342.94
2023-10-19T02:46:15.128Z,96334.25
2023-10-19T02:48:41.844Z,96338.25
2023-10-19T02:51:08.472Z,96332.03
2023-10-19T02:53:35.141Z,96336.53
2023-10-19T02:56:01.744Z,96332.03
2023-10-19T02:58:28.401Z,96334.38
2023-10-19T03:00:55.139Z,96331.78
2023-10-19T03:03:21.933Z,96335.16
2023-10-19T03:05:48.827Z,96341.41
2023-10-19T03:08:15.566Z,96332.88
2023-10-19T03:10:42.374Z,96335.94
2023-10-19T03:13:09.005Z,96326.84
2023-10-19T03:15:35.711Z,96320.00
2023-10-19T03:18:02.330Z,96315.41
2023-10-19T03:20:28.995Z,96309.53
2023-10-19T03:22:55.695Z,96313.41
2023-10-19T03:25:22.406Z,96316.44
2023-10-19T03:27:49.061Z,96317.06
2023-10-19T03:30:15.764Z,96305.91
2023-10-19T03:32:42.440Z,96296.25
2023-10-19T03:35:09.127Z,96286.38
2023-10-19T03:37:35.859Z,96294.44
2023-10-19T03:40:02.524Z,96281.28
2023-10-19T03:42:29.304Z,96289.78
2023-10-19T03:44:56.014Z,96291.75
2023-10-19T03:47:22.704Z,96290.63
2023-10-19T03:49:49.457Z,96281.31
2023-10-19T03:52:16.187Z,96280.50
2023-10-19T03:54:42.851Z,96278.47
2023-10-19T03:57:09.510Z,96290.75
2023-10-19T03:59:36.260Z,96280.66
2023-10-19T04:02:02.944Z,96283.75
2023-10-19T04:04:29.734Z,96269.88
2023-10-19T04:06:57.258Z,96273.09
2023-10-19T04:09:23.921Z,96262.84
2023-10-19T04:11:50.567Z,96251.09
2023-10-19T04:14:17.290Z,96252.50
2023-10-19T04:16:44.050Z,96257.91
2023-10-19T04:19:10.706Z,96253.25
2023-10-19T04:21:37.457Z,96249.00
2023-10-19T04:24:04.116Z,96245.78
2023-10-19T04:26:30.716Z,96240.00
2023-10-19T04:28:57.441Z,96242.63
2023-10-19T04:31:24.084Z,96236.56
2023-10-19T04:33:50.704Z,96241.41
2023-10-19T04:36:17.412Z,96229.09
2023-10-19T04:38:44.059Z,96237.56
2023-10-19T04:41:10.858Z,96229.69
2023-10-19T04:43:37.656Z,96236.13
2023-10-19T04:46:04.371Z,96228.69
2023-10-19T04:48:31.023Z,96218.59
2023-10-19T04:50:57.686Z,96210.72
2023-10-19T04:53:24.342Z,96205.81
2023-10-19T04:55:53.208Z,96201.56
2023-10-19T04:58:19.980Z,96202.72
2023-10-19T05:00:46.653Z,96207.00
2023-10-19T05:03:13.304Z,96199.72
2023-10-19T05:05:40.058Z,96186.66
2023-10-19T05:08:06.684Z,96202.75
2023-10-19T05:10:33.349Z,96200.09
2023-10-19T05:13:00.008Z,96192.66
2023-10-19T05:15:26.667Z,96183.81
2023-10-19T05:17:53.296Z,96188.03
2023-10-19T05:20:19.959Z,96186.44
2023-10-19T05:22:46.616Z,96188.25
2023-10-19T05:25:13.245Z,96186.84
2023-10-19T05:27:39.959Z,96186.41
2023-10-19T05:30:06.566Z,96184.22
2023-10-19T05:32:33.303Z,96186.41
2023-10-19T05:35:01.289Z,96183.38
2023-10-19T05:37:28.175Z,96182.00
2023-10-19T05:39:54.787Z,96176.94
2023-10-19T05:42:21.489Z,96189.38
2023-10-19T05:44:48.129Z,96181.69
2023-10-19T05:47:14.807Z,96172.00
2023-10-19T05:49:41.551Z,96175.84
2023-10-19T05:52:08.209Z,96173.63
2023-10-19T05:54:34.823Z,96160.38
2023-10-19T05:57:01.519Z,96158.72
2023-10-19T05:59:28.193Z,96163.84
2023-10-19T06:01:54.930Z,96172.81
2023-10-19T06:04:22.028Z,96175.44
2023-10-19T06:06:48.844Z,96185.06
2023-10-19T06:09:15.452Z,96175.47
2023-10-19T06:11:42.126Z,96173.41
2023-10-19T06:14:08.734Z,96179.97
2023-10-19T06:16:35.533Z,96173.69
2023-10-19T06:19:02.499Z,96174.84
2023-10-19T06:21:29.268Z,96164.66
2023-10-19T06:23:55.931Z,96170.78
2023-10-19T06:26:22.631Z,96165.31
2023-10-19T06:28:49.259Z,96179.56
2023-10-19T06:31:15.870Z,96172.28
2023-10-19T06:33:42.879Z,96168.78
2023-10-19T06:36:09.642Z,96174.47
2023-10-19T06:38:36.270Z,96170.63
2023-10-19T06:41:02.974Z,96160.22
2023-10-19T06:43:31.831Z,96138.94
2023-10-19T06:46:00.308Z,96148.97
2023-10-19T06:48:27.002Z,96152.13
2023-10-19T06:50:53.592Z,96147.34
2023-10-19T06:53:20.228Z,96140.81
2023-10-19T06:55:46.979Z,96141.47
2023-10-19T06:58:13.710Z,96140.94
2023-10-19T07:00:40.400Z,96139.19
2023-10-19T07:03:07.092Z,96133.31
2023-10-19T07:05:33.737Z,96131.84
2023-10-19T07:08:00.352Z,96132.63
2023-10-19T07:10:27.055Z,96134.25
2023-10-19T07:12:53.703Z,96135.16
2023-10-19T07:15:20.381Z,96137.00
2023-10-19T07:17:47.069Z,96134.72
2023-10-19T07:20:13.743Z,96134.97
2023-10-19T07:22:40.388Z,96130.72
2023-10-19T07:25:07.098Z,96133.69
2023-10-19T07:27:38.245Z,96126.47
2023-10-19T07:30:05.396Z,96134.34
2023-10-19T07:32:32.247Z,96136.44
2023-10-19T07:34:58.980Z,96147.19
2023-10-19T07:37:25.797Z,96139.41
2023-10-19T07:39:52.481Z,96143.31
2023-10-19T07:42:19.120Z,96137.78
2023-10-19T07:44:45.749Z,96127.34
2023-10-19T07:47:12.414Z,96128.16
2023-10-19T07:49:39.117Z,96126.59
2023-10-19T07:52:05.747Z,96136.13
2023-10-19T07:54:32.653Z,96121.47
2023-10-19T07:56:59.462Z,96115.84
2023-10-19T07:59:26.074Z,96099.00
2023-10-19T08:01:52.884Z,96100.94
2023-10-19T08:04:19.583Z,96094.56
2023-10-19T08:06:46.234Z,96098.25
2023-10-19T08:09:12.923Z,96094.31
2023-10-19T08:11:39.534Z,96099.75
2023-10-19T08:14:06.212Z,96090.59
2023-10-19T08:16:32.943Z,96095.19
2023-10-19T08:18:59.587Z,96081.25
2023-10-19T08:21:26.212Z,96087.16
2023-10-19T08:23:52.919Z,96085.06
2023-10-19T08:26:19.577Z,96092.09
2023-10-19T08:28:46.283Z,96080.94
2023-10-19T08:31:12.996Z,96080.16
2023-10-19T08:33:39.656Z,96075.63
2023-10-19T08:36:06.350Z,96077.56
2023-10-19T08:38:33.085Z,96073.63
2023-10-19T08:40:59.765Z,96072.84
2023-10-19T08:43:26.448Z,96074.47
2023-10-19T08:45:53.148Z,96083.44
2023-10-19T08:48:19.807Z,96074.66
2023-10-19T08:50:46.427Z,96079.88
2023-10-19T08:53:13.163Z,96076.69
2023-10-19T08:55:48.438Z,96073.78
2023-10-19T08:58:17.003Z,96072.97
2023-10-19T09:00:44.492Z,96076.50
2023-10-19T09:03:12.866Z,96070.84
2023-10-19T09:05:39.622Z,96081.50
2023-10-19T09:08:06.348Z,96067.38
2023-10-19T09:10:33.073Z,96082.28
2023-10-19T09:12:59.844Z,96088.22
2023-10-19T09:15:26.471Z,96082.66
2023-10-19T09:17:53.182Z,96084.78
2023-10-19T09:20:19.879Z,96093.25
2023-10-19T09:22:46.510Z,96088.25
2023-10-19T09:25:13.119Z,96075.44
2023-10-19T09:27:39.785Z,96069.66
2023-10-19T09:30:06.428Z,96075.22
2023-10-19T09:32:33.078Z,96072.59
2023-10-19T09:34:59.784Z,96069.34
2023-10-19T09:37:26.406Z,96066.97
2023-10-19T09:39:53.009Z,96057.94
2023-10-19T09:42:19.685Z,96054.84
2023-10-19T09:44:46.288Z,96053.53
2023-10-19T09:47:12.993Z,96057.06
2023-10-19T09:49:39.788Z,96054.22
2023-10-19T09:52:10.047Z,96042.25
2023-10-19T09:54:36.991Z,96047.38
2023-10-19T09:57:03.674Z,96032.84
2023-10-19T09:59:30.294Z,96035.94
2023-10-19T10:01:56.988Z,96036.59
2023-10-19T10:04:23.816Z,96032.59
2023-10-19T10:06:50.454Z,96036.69
2023-10-19T10:09:17.065Z,96030.81
2023-10-19T10:11:43.774Z,96019.00
2023-10-19T10:14:10.482Z,96012.47
2023-10-19T10:16:37.318Z,96017.31
2023-10-19T10:19:04.082Z,96012.78
2023-10-19T10:21:30.696Z,96013.72
2023-10-19T10:23:57.325Z,96006.84
2023-10-19T10:26:24.006Z,95999.97
2023-10-19T10:28:53.435Z,95999.63
2023-10-19T10:31:21.342Z,95989.44
2023-10-19T10:33:48.041Z,95986.41
2023-10-19T10:36:14.666Z,95980.31
2023-10-19T10:38:41.288Z,95987.03
2023-10-19T10:41:08.024Z,95987.28
2023-10-19T10:43:34.729Z,95983.91
2023-10-19T10:46:01.413Z,95976.25
2023-10-19T10:48:28.138Z,95962.97
2023-10-19T10:50:55.790Z,95954.09
2023-10-19T10:53:23.622Z,95964.41
2023-10-19T10:55:50.347Z,95971.25
2023-10-19T10:58:17.046Z,95966.94
2023-10-19T11:00:43.709Z,95966.13
2023-10-19T11:03:10.413Z,95959.31
2023-10-19T11:05:37.095Z,95949.59
2023-10-19T11:08:03.886Z,95946.34
2023-10-19T11:10:30.767Z,95937.38
2023-10-19T11:12:57.453Z,95936.53
2023-10-19T11:15:24.065Z,95933.94
2023-10-19T11:17:50.736Z,95931.31
2023-10-19T11:20:17.372Z,95925.25
2023-10-19T11:22:44.053Z,95922.66
2023-10-19T11:25:10.720Z,95922.16
2023-10-19T11:27:37.357Z,95915.44
2023-10-19T11:30:03.974Z,95912.09
2023-10-19T11:32:30.670Z,95903.97
2023-10-19T11:34:57.314Z,95898.16
2023-10-19T11:37:23.983Z,95902.78
2023-10-19T11:39:50.648Z,95899.31
2023-10-19T11:42:17.258Z,95895.81
2023-10-19T11:44:43.912Z,95894.41
2023-10-19T11:47:10.712Z,95881.81
2023-10-19T11:49:37.464Z,95891.13
2023-10-19T11:52:04.087Z,95885.75
2023-10-19T11:54:31.017Z,95878.56
2023-10-19T11:56:57.750Z,95877.25
2023-10-19T11:59:24.470Z,95868.94
2023-10-19T12:01:51.364Z,95863.97
2023-10-19T12:04:18.132Z,95867.69
2023-10-19T12:06:44.759Z,95859.13
2023-10-19T12:09:11.472Z,95847.19
2023-10-19T12:11:38.078Z,95852.84
2023-10-19T12:14:04.717Z,95853.94
2023-10-19T12:16:31.470Z,95849.88
2023-10-19T12:18:58.110Z,95846.28
2023-10-19T12:21:24.750Z,95857.13
2023-10-19T12:23:51.436Z,95840.94
2023-10-19T12:26:18.066Z,95842.03
2023-10-19T12:28:46.984Z,95829.44
2023-10-19T12:31:14.413Z,95833.50
2023-10-19T12:33:41.089Z,95836.66
2023-10-19T12:36:07.769Z,95834.16
2023-10-19T12:38:34.485Z,95837.66
2023-10-19T12:41:01.135Z,95832.97
2023-10-19T12:43:27.818Z,95832.78
2023-10-19T12:45:54.538Z,95818.25
2023-10-19T12:48:21.238Z,95820.72
2023-10-19T12:50:47.838Z,95821.44
2023-10-19T12:53:14.541Z,95808.88
2023-10-19T12:55:41.180Z,95797.56
2023-10-19T12:58:07.825Z,95796.41
2023-10-19T13:00:34.489Z,95799.22
2023-10-19T13:03:01.334Z,95802.69
2023-10-19T13:05:28.072Z,95809.59
2023-10-19T13:07:54.768Z,95806.41
2023-10-19T13:10:21.387Z,95809.03
2023-10-19T13:12:47.997Z,95798.59
2023-10-19T13:15:14.690Z,95792.16
2023-10-19T13:17:41.606Z,95784.63
2023-10-19T13:20:08.348Z,95799.63
2023-10-19T13:22:35.162Z,95803.56
2023-10-19T13:25:01.835Z,95800.69
2023-10-19T13:27:28.440Z,95793.19
2023-10-19T13:29:55.117Z,95786.13
2023-10-19T13:32:21.868Z,95794.56
2023-10-19T13:34:48.569Z,95790.00
2023-10-19T13:37:15.243Z,95788.13
2023-10-19T13:39:41.915Z,95769.56
2023-10-19T13:42:08.545Z,95773.06
2023-10-19T13:44:35.252Z,95775.16
2023-10-19T13:47:01.911Z,95770.41
2023-10-19T13:49:29.438Z,95778.34
2023-10-19T13:51:56.931Z,95768.28
2023-10-19T13:54:23.555Z,95756.75
2023-10-19T13:56:50.210Z,95760.25
2023-10-19T13:59:16.942Z,95755.78
2023-10-19T14:01:43.681Z,95755.28
2023-10-19T14:04:10.499Z,95755.22
2023-10-19T14:06:37.241Z,95748.06
2023-10-19T14:09:03.850Z,95746.63
2023-10-19T14:11:30.483Z,95737.94
2023-10-19T14:13:57.214Z,95732.84
2023-10-19T14:16:23.864Z,95738.13
2023-10-19T14:18:50.500Z,95728.13
2023-10-19T14:21:17.169Z,95744.78
2023-10-19T14:23:43.894Z,95734.81
2023-10-19T14:26:10.671Z,95716.66
2023-10-19T14:28:37.541Z,95725.16
2023-10-19T14:31:04.221Z,95719.53
2023-10-19T14:33:30.874Z,95718.47
2023-10-19T14:35:57.585Z,95730.34
2023-10-19T14:38:24.195Z,95721.78
2023-10-19T14:40:52.397Z,95731.72
2023-10-19T14:43:19.113Z,95725.31
2023-10-19T14:45:45.735Z,95735.03
2023-10-19T14:48:12.482Z,95737.13
2023-10-19T14:50:39.230Z,95733.03
2023-10-19T14:53:05.997Z,95718.53
2023-10-19T14:55:32.715Z,95716.28
2023-10-19T14:57:59.360Z,95729.56
2023-10-19T15:00:25.973Z,95717.56
2023-10-19T15:02:52.638Z,95720.31
2023-10-19T15:05:19.437Z,95722.19
2023-10-19T15:07:46.186Z,95711.41
2023-10-19T15:10:12.962Z,95701.94
2023-10-19T15:12:39.632Z,95698.06
2023-10-19T15:15:06.244Z,95691.25
2023-10-19T15:17:32.922Z,95689.78
2023-10-19T15:19:59.694Z,95699.16
2023-10-19T15:22:26.349Z,95692.13
2023-10-19T15:24:52.993Z,95681.06
2023-10-19T15:27:19.691Z,95683.31
2023-10-19T15:29:46.307Z,95682.03
2023-10-19T15:32:12.948Z,95686.28
2023-10-19T15:34:39.684Z,95683.22
2023-10-19T15:37:06.339Z,95685.38
2023-10-19T15:39:32.960Z,95682.00
2023-10-19T15:41:59.636Z,95680.63
2023-10-19T15:44:26.254Z,95684.50
2023-10-19T15:46:52.884Z,95672.28
2023-10-19T15:49:19.560Z,95675.56
2023-10-19T15:51:46.170Z,95680.91
2023-10-19T15:54:12.805Z,95676.31
2023-10-19T15:56:39.501Z,95679.94
2023-10-19T15:59:06.169Z,95677.47
2023-10-19T16:01:32.881Z,95679.66
2023-10-19T16:03:59.681Z,95671.94
2023-10-19T16:06:26.445Z,95673.31
2023-10-19T16:08:53.081Z,95676.84
2023-10-19T16:11:19.783Z,95687.19
2023-10-19T16:13:46.498Z,95692.38
2023-10-19T16:16:13.173Z,95697.25
2023-10-19T16:18:39.848Z,95689.03
2023-10-19T16:21:06.452Z,95689.34
2023-10-19T16:23:33.058Z,95681.00
2023-10-19T16:26:02.833Z,95681.94
2023-10-19T16:28:30.898Z,95686.78
2023-10-19T16:30:57.571Z,95687.94
2023-10-19T16:33:24.281Z,95688.25
2023-10-19T16:35:50.930Z,95687.84
2023-10-19T16:38:17.572Z,95690.28
2023-10-19T16:40:44.363Z,95686.56
2023-10-19T16:43:10.974Z,95690.38
2023-10-19T16:45:37.673Z,95685.00
2023-10-19T16:48:04.412Z,95686.34
2023-10-19T16:50:31.064Z,95678.34
2023-10-19T16:52:57.720Z,95672.91
2023-10-19T16:55:24.396Z,95664.22
2023-10-19T16:57:51.018Z,95675.72
2023-10-19T17:00:17.674Z,95669.00
2023-10-19T17:02:44.530Z,95679.91
2023-10-19T17:05:11.324Z,95672.16
2023-10-19T17:07:37.955Z,95671.84
2023-10-19T17:10:04.618Z,95668.84
2023-10-19T17:12:31.225Z,95673.28
2023-10-19T17:14:57.840Z,95670.03
2023-10-19T17:17:24.566Z,95671.50
2023-10-19T17:19:51.351Z,95675.97
2023-10-19T17:22:18.040Z,95680.41
2023-10-19T17:24:44.723Z,95687.88
2023-10-19T17:27:11.360Z,95693.28
2023-10-19T17:29:37.960Z,95687.47
2023-10-19T17:32:04.704Z,95677.81
2023-10-19T17:34:31.505Z,95672.16
2023-10-19T17:36:58.235Z,95674.63
2023-10-19T17:39:24.932Z,95660.81
2023-10-19T17:41:51.548Z,95663.00
2023-10-19T17:44:18.259Z,95659.22
2023-10-19T17:46:45.136Z,95657.34
2023-10-19T17:49:11.841Z,95656.94
2023-10-19T17:51:38.523Z,95656.69
2023-10-19T17:54:05.216Z,95647.03
2023-10-19T17:56:31.873Z,95655.88
2023-10-19T17:58:59.218Z,95661.97
2023-10-19T18:01:26.149Z,95667.16
2023-10-19T18:03:52.980Z,95667.28
2023-10-19T18:06:19.662Z,95678.47
2023-10-19T18:08:46.372Z,95674.22
2023-10-19T18:11:13.169Z,95678.78
2023-10-19T18:13:40.030Z,95667.75
2023-10-19T18:16:06.810Z,95673.66
2023-10-19T18:18:33.492Z,95666.44
2023-10-19T18:21:00.125Z,95662.69
2023-10-19T18:23:26.855Z,95651.75
2023-10-19T18:25:53.566Z,95662.78
2023-10-19T18:28:20.230Z,95655.19
2023-10-19T18:30:46.903Z,95641.09
2023-10-19T18:33:13.615Z,95636.59
2023-10-19T18:35:40.356Z,95632.97
2023-10-19T18:38:07.274Z,95645.25
2023-10-19T18:40:35.261Z,95651.59
2023-10-19T18:43:01.956Z,95651.56
2023-10-19T18:45:28.676Z,95655.78
2023-10-19T18:47:55.388Z,95656.22
2023-10-19T18:50:33.549Z,95644.16
2023-10-19T18:53:01.653Z,95641.69
2023-10-19T18:55:28.273Z,95645.13
2023-10-19T18:57:54.912Z,95637.41
2023-10-19T19:00:23.722Z,95632.41
2023-10-19T19:02:50.362Z,95634.06
2023-10-19T19:05:17.071Z,95644.63
2023-10-19T19:07:43.765Z,95645.97
2023-10-19T19:10:10.397Z,95650.63
2023-10-19T19:12:37.044Z,95653.75
2023-10-19T19:15:03.728Z,95645.53
2023-10-19T19:17:30.410Z,95642.81
2023-10-19T19:19:57.131Z,95640.00
2023-10-19T19:22:23.822Z,95648.66
2023-10-19T19:24:50.439Z,95659.00
2023-10-19T19:27:17.059Z,95654.31
2023-10-19T19:29:43.727Z,95659.13
2023-10-19T19:32:10.432Z,95652.56
2023-10-19T19:34:37.120Z,95647.81
2023-10-19T19:37:03.786Z,95642.53
2023-10-19T19:39:30.456Z,95637.75
2023-10-19T19:41:57.169Z,95634.00
2023-10-19T19:44:23.951Z,95628.09
2023-10-19T19:46:50.727Z,95627.31
2023-10-19T19:49:17.383Z,95636.47
2023-10-19T19:51:44.066Z,95631.66
2023-10-19T19:54:10.697Z,95633.31
2023-10-19T19:56:37.317Z,95643.34
2023-10-19T19:59:04.019Z,95638.53
2023-10-19T20:01:30.667Z,95629.47
2023-10-19T20:03:57.385Z,95649.22
2023-10-19T20:06:24.114Z,95650.41
2023-10-19T20:08:50.725Z,95645.66
2023-10-19T20:11:17.382Z,95642.44
2023-10-19T20:13:44.074Z,95642.91
2023-10-19T20:16:10.724Z,95630.13
2023-10-19T20:18:37.431Z,95643.75
2023-10-19T20:21:04.138Z,95652.22
2023-10-19T20:23:30.784Z,95635.22
2023-10-19T20:25:57.431Z,95639.84
2023-10-19T20:28:24.109Z,95623.91
2023-10-19T20:30:50.722Z,95603.78
2023-10-19T20:33:17.379Z,95607.94
2023-10-19T20:35:44.070Z,95612.16
2023-10-19T20:38:10.743Z,95609.78
2023-10-19T20:40:38.412Z,95604.44
2023-10-19T20:43:05.138Z,95600.44
2023-10-19T20:45:31.755Z,95594.56
2023-10-19T20:47:58.432Z,95593.06
2023-10-19T20:50:25.310Z,95592.78
2023-10-19T20:52:51.978Z,95596.81
2023-10-19T20:55:18.605Z,95597.63
2023-10-19T20:57:45.285Z,95601.13
2023-10-19T21:00:11.921Z,95600.59
2023-10-19T21:02:38.592Z,95589.25
2023-10-19T21:05:05.377Z,95595.28
2023-10-19T21:07:32.029Z,95599.03
2023-10-19T21:09:58.637Z,95600.41
2023-10-19T21:12:25.304Z,95601.75
2023-10-19T21:14:51.945Z,95611.78
2023-10-19T21:17:18.631Z,95594.25
2023-10-19T21:19:45.351Z,95575.13
2023-10-19T21:22:11.958Z,95587.28
2023-10-19T21:24:38.559Z,95577.69
2023-10-19T21:27:05.248Z,95576.41
2023-10-19T21:29:32.012Z,95569.69
2023-10-19T21:31:58.773Z,95568.09
2023-10-19T21:34:25.547Z,95570.97
2023-10-19T21:36:52.145Z,95567.72
2023-10-19T21:39:18.768Z,95565.13
2023-10-19T21:41:45.437Z,95558.69
2023-10-19T21:44:12.098Z,95564.84
2023-10-19T21:46:38.761Z,95553.47
2023-10-19T21:49:05.437Z,95545.81
2023-10-19T21:51:32.043Z,95552.16
2023-10-19T21:53:58.641Z,95552.13
2023-10-19T21:56:25.382Z,95560.13
2023-10-19T21:58:52.066Z,95561.59
2023-10-19T22:01:18.680Z,95553.50
